createdAt,value
2018-12-13T00:00:10.613Z,25.80
2018-12-13T00:02:38.844Z,26.03
2018-12-13T00:05:06.989Z,27.57
2018-12-13T00:07:35.091Z,28.87
2018-12-13T00:10:03.205Z,24.13
2018-12-13T00:12:31.414Z,26.37
2018-12-13T00:14:59.673Z,25.60
2018-12-13T00:17:27.876Z,25.23
2018-12-13T00:19:56.012Z,26.50
2018-12-13T00:22:24.125Z,29.70
2018-12-13T00:24:52.308Z,26.87
2018-12-13T00:27:20.474Z,25.13
2018-12-13T00:29:48.600Z,25.83
2018-12-13T00:32:16.737Z,25.13
2018-12-13T00:34:44.844Z,28.53
2018-12-13T00:37:13.045Z,28.43
2018-12-13T00:39:41.144Z,26.50
2018-12-13T00:42:09.321Z,26.67
2018-12-13T00:44:37.480Z,28.27
2018-12-13T00:47:06.057Z,27.00
2018-12-13T00:49:34.654Z,27.83
2018-12-13T00:52:02.790Z,26.17
2018-12-13T00:54:31.013Z,28.93
2018-12-13T00:56:59.157Z,25.87
2018-12-13T00:59:27.359Z,26.57
2018-12-13T01:01:55.529Z,26.87
2018-12-13T01:04:23.681Z,28.13
2018-12-13T01:06:51.889Z,30.27
2018-12-13T01:09:20.009Z,28.93
2018-12-13T01:11:49.030Z,27.90
2018-12-13T01:14:17.213Z,30.27
2018-12-13T01:16:45.324Z,28.63
2018-12-13T01:19:13.428Z,27.03
2018-12-13T01:21:42.340Z,29.70
2018-12-13T01:24:10.529Z,26.37
2018-12-13T01:26:38.678Z,29.23
2018-12-13T01:29:06.860Z,28.17
2018-12-13T01:31:35.002Z,29.27
2018-12-13T01:34:03.111Z,27.83
2018-12-13T01:36:31.282Z,30.93
2018-12-13T01:38:59.453Z,29.33
2018-12-13T01:41:27.733Z,29.33
2018-12-13T01:43:55.871Z,27.57
2018-12-13T01:46:24.068Z,27.80
2018-12-13T01:48:52.209Z,32.70
2018-12-13T01:51:20.352Z,27.70
2018-12-13T01:53:48.570Z,29.10
2018-12-13T01:56:16.744Z,27.13
2018-12-13T01:58:44.861Z,29.20
2018-12-13T02:01:13.057Z,29.07
2018-12-13T02:03:41.250Z,33.73
2018-12-13T02:06:09.424Z,28.40
2018-12-13T02:08:37.561Z,29.53
2018-12-13T02:11:05.664Z,29.33
2018-12-13T02:13:33.836Z,25.87
2018-12-13T02:16:02.028Z,30.27
2018-12-13T02:18:30.153Z,32.10
2018-12-13T02:20:58.430Z,27.23
2018-12-13T02:23:26.608Z,26.37
2018-12-13T02:25:54.828Z,30.30
2018-12-13T02:28:22.948Z,29.47
2018-12-13T02:30:51.360Z,30.23
2018-12-13T02:33:19.507Z,30.33
2018-12-13T02:35:47.629Z,30.67
2018-12-13T02:38:15.783Z,27.97
2018-12-13T02:40:43.926Z,31.90
2018-12-13T02:43:12.029Z,30.60
2018-12-13T02:45:40.188Z,30.37
2018-12-13T02:48:08.339Z,28.97
2018-12-13T02:50:36.554Z,31.93
2018-12-13T02:53:04.730Z,27.53
2018-12-13T02:55:32.970Z,30.00
2018-12-13T02:58:01.068Z,28.07
2018-12-13T03:00:29.275Z,29.77
2018-12-13T03:02:57.450Z,31.17
2018-12-13T03:05:25.592Z,29.97
2018-12-13T03:07:53.749Z,29.63
2018-12-13T03:10:21.948Z,30.30
2018-12-13T03:12:50.081Z,35.43
2018-12-13T03:15:18.180Z,30.57
2018-12-13T03:17:46.505Z,29.83
2018-12-13T03:20:14.690Z,29.23
2018-12-13T03:22:42.797Z,33.13
2018-12-13T03:25:10.957Z,31.37
2018-12-13T03:27:39.163Z,31.13
2018-12-13T03:30:07.469Z,33.33
2018-12-13T03:32:35.581Z,33.70
2018-12-13T03:35:03.680Z,31.37
2018-12-13T03:37:31.869Z,31.90
2018-12-13T03:40:00.016Z,32.40
2018-12-13T03:42:28.251Z,33.97
2018-12-13T03:44:56.457Z,33.57
2018-12-13T03:47:24.644Z,37.27
2018-12-13T03:49:52.835Z,34.77
2018-12-13T03:52:20.953Z,38.13
2018-12-13T03:54:49.066Z,33.40
2018-12-13T03:57:17.261Z,36.10
2018-12-13T03:59:45.385Z,38.07
2018-12-13T04:02:13.494Z,34.00
2018-12-13T04:04:41.709Z,38.53
2018-12-13T04:07:09.817Z,38.47
2018-12-13T04:09:38.014Z,37.37
2018-12-13T04:12:06.186Z,36.73
2018-12-13T04:14:34.277Z,36.07
2018-12-13T04:17:02.381Z,38.00
2018-12-13T04:19:30.495Z,39.77
2018-12-13T04:22:01.200Z,37.47
2018-12-13T04:24:29.837Z,40.40
2018-12-13T04:26:57.949Z,39.20
2018-12-13T04:29:26.054Z,37.20
2018-12-13T04:31:54.264Z,39.53
2018-12-13T04:34:22.423Z,37.80
2018-12-13T04:36:50.532Z,38.53
2018-12-13T04:42:50.239Z,40.47
2018-12-13T04:45:18.423Z,35.87
2018-12-13T04:47:46.582Z,36.27
2018-12-13T04:50:14.761Z,34.63
2018-12-13T04:52:42.901Z,36.87
2018-12-13T04:55:11.085Z,35.60
2018-12-13T04:57:39.184Z,35.63
2018-12-13T05:00:07.326Z,34.77
2018-12-13T05:02:35.427Z,36.67
2018-12-13T05:05:03.586Z,35.13
2018-12-13T05:07:31.736Z,35.30
2018-12-13T05:09:59.944Z,34.10
2018-12-13T05:12:28.041Z,34.43
2018-12-13T05:14:56.198Z,31.83
2018-12-13T05:17:24.348Z,34.30
2018-12-13T05:19:52.441Z,34.27
2018-12-13T05:22:20.588Z,34.57
2018-12-13T05:24:48.775Z,34.00
2018-12-13T05:27:16.906Z,34.17
2018-12-13T05:29:45.109Z,29.27
2018-12-13T05:32:13.328Z,31.70
2018-12-13T05:34:41.568Z,33.97
2018-12-13T05:37:09.702Z,35.63
2018-12-13T05:39:37.844Z,31.20
2018-12-13T05:42:06.048Z,34.43
2018-12-13T05:44:34.284Z,33.73
2018-12-13T05:47:02.385Z,32.20
2018-12-13T05:49:30.484Z,35.57
2018-12-13T05:51:58.592Z,30.83
2018-12-13T05:54:27.018Z,33.70
2018-12-13T05:56:55.124Z,36.47
2018-12-13T05:59:23.305Z,33.37
2018-12-13T06:01:51.796Z,34.53
2018-12-13T06:04:19.932Z,34.33
2018-12-13T06:06:48.111Z,36.23
2018-12-13T06:09:16.606Z,36.00
2018-12-13T06:11:44.713Z,31.20
2018-12-13T06:14:12.857Z,31.33
2018-12-13T06:16:41.036Z,36.50
2018-12-13T06:19:09.544Z,32.43
2018-12-13T06:21:37.703Z,32.50
2018-12-13T06:24:05.867Z,32.97
2018-12-13T06:26:34.510Z,29.63
2018-12-13T06:29:02.633Z,34.17
2018-12-13T06:31:30.788Z,34.07
2018-12-13T06:33:58.930Z,32.73
2018-12-13T06:36:28.085Z,35.17
2018-12-13T06:38:56.324Z,33.67
2018-12-13T06:41:24.513Z,34.50
2018-12-13T06:43:52.671Z,31.97
2018-12-13T06:46:20.774Z,33.90
2018-12-13T06:48:49.053Z,36.57
2018-12-13T06:51:17.196Z,34.90
2018-12-13T06:53:45.348Z,40.07
2018-12-13T06:56:13.571Z,35.87
2018-12-13T06:58:41.882Z,37.93
2018-12-13T07:01:10.254Z,35.27
2018-12-13T07:03:38.405Z,41.00
2018-12-13T07:06:06.609Z,41.03
2018-12-13T07:08:34.742Z,40.70
2018-12-13T07:11:02.961Z,42.03
2018-12-13T07:13:31.077Z,42.47
2018-12-13T07:15:59.224Z,40.30
2018-12-13T07:18:28.404Z,41.13
2018-12-13T07:20:56.537Z,40.90
2018-12-13T07:23:24.697Z,45.00
2018-12-13T07:25:52.870Z,44.83
2018-12-13T07:28:21.062Z,42.87
2018-12-13T07:30:49.197Z,48.03
2018-12-13T07:33:17.303Z,47.93
2018-12-13T07:35:45.473Z,45.33
2018-12-13T07:38:14.454Z,45.53
2018-12-13T07:40:42.857Z,44.40
2018-12-13T07:43:11.018Z,41.77
2018-12-13T07:45:39.148Z,50.03
2018-12-13T07:48:07.272Z,43.20
2018-12-13T07:50:35.432Z,45.53
2018-12-13T07:53:03.577Z,46.87
2018-12-13T07:55:31.772Z,45.50
2018-12-13T07:57:59.905Z,48.07
2018-12-13T08:00:28.527Z,44.13
2018-12-13T08:02:56.661Z,44.50
2018-12-13T08:05:24.856Z,47.73
2018-12-13T08:07:53.038Z,45.40
2018-12-13T08:10:21.248Z,47.97
2018-12-13T08:12:49.354Z,46.70
2018-12-13T08:15:17.459Z,44.57
2018-12-13T08:17:46.645Z,43.30
2018-12-13T08:20:14.899Z,41.57
2018-12-13T08:22:43.062Z,43.00
2018-12-13T08:25:11.261Z,44.73
2018-12-13T08:27:39.358Z,43.83
2018-12-13T08:30:07.516Z,46.67
2018-12-13T08:32:35.667Z,42.20
2018-12-13T08:35:03.954Z,45.60
2018-12-13T08:37:32.149Z,40.97
2018-12-13T08:40:00.423Z,41.53
2018-12-13T08:42:28.541Z,41.07
2018-12-13T08:44:56.972Z,38.40
2018-12-13T08:47:25.409Z,37.33
2018-12-13T08:49:53.502Z,39.20
2018-12-13T08:52:21.684Z,41.00
2018-12-13T08:54:49.784Z,39.37
2018-12-13T08:57:17.964Z,38.97
2018-12-13T08:59:46.152Z,36.27
2018-12-13T09:02:14.252Z,37.57
2018-12-13T09:04:42.391Z,36.80
2018-12-13T09:07:10.617Z,40.83
2018-12-13T09:09:38.733Z,33.87
2018-12-13T09:12:06.850Z,35.73
2018-12-13T09:14:35.080Z,35.70
2018-12-13T09:17:03.297Z,36.70
2018-12-13T09:19:31.870Z,33.20
2018-12-13T09:22:00.040Z,35.53
2018-12-13T09:24:28.215Z,37.67
2018-12-13T09:26:56.353Z,33.27
2018-12-13T09:29:24.553Z,34.47
2018-12-13T09:31:52.886Z,34.50
2018-12-13T09:34:20.989Z,33.23
2018-12-13T09:36:49.121Z,30.27
2018-12-13T09:39:17.263Z,32.27
2018-12-13T09:41:45.434Z,32.33
2018-12-13T09:44:16.671Z,32.33
2018-12-13T09:46:45.673Z,29.33
2018-12-13T09:49:13.775Z,29.53
2018-12-13T09:51:42.034Z,30.63
2018-12-13T09:54:10.205Z,30.83
2018-12-13T09:56:38.365Z,32.10
2018-12-13T09:59:06.486Z,29.10
2018-12-13T10:01:34.609Z,30.30
2018-12-13T10:04:02.938Z,30.87
2018-12-13T10:06:31.130Z,29.43
2018-12-13T10:08:59.237Z,28.93
2018-12-13T10:11:27.404Z,26.53
2018-12-13T10:13:55.657Z,30.10
2018-12-13T10:16:23.856Z,29.13
2018-12-13T10:18:51.977Z,29.77
2018-12-13T10:21:20.205Z,28.57
2018-12-13T10:23:48.358Z,31.13
2018-12-13T10:26:16.463Z,29.47
2018-12-13T10:28:44.657Z,29.60
2018-12-13T10:31:12.801Z,30.80
2018-12-13T10:33:40.905Z,28.50
2018-12-13T10:36:09.022Z,26.10
2018-12-13T10:38:37.232Z,25.10
2018-12-13T10:41:05.337Z,26.80
2018-12-13T10:43:33.503Z,24.40
2018-12-13T10:46:01.638Z,28.77
2018-12-13T10:48:29.779Z,26.20
2018-12-13T10:50:58.000Z,25.70
2018-12-13T10:53:26.183Z,27.20
2018-12-13T10:55:54.287Z,25.67
2018-12-13T10:58:22.415Z,27.10
2018-12-13T11:00:55.776Z,23.40
2018-12-13T11:03:29.328Z,26.13
2018-12-13T11:05:57.477Z,25.10
2018-12-13T11:08:25.659Z,25.53
2018-12-13T11:10:53.822Z,25.83
2018-12-13T11:13:21.981Z,27.37
2018-12-13T11:15:50.169Z,26.20
2018-12-13T11:18:18.681Z,23.80
2018-12-13T11:20:46.847Z,23.10
2018-12-13T11:23:14.966Z,22.67
2018-12-13T11:25:43.292Z,22.47
2018-12-13T11:28:17.147Z,21.13
2018-12-13T11:30:45.541Z,22.47
2018-12-13T11:33:13.749Z,22.73
2018-12-13T11:35:41.912Z,20.70
2018-12-13T11:38:10.068Z,23.77
2018-12-13T11:40:38.181Z,22.00
2018-12-13T11:43:06.342Z,25.53
2018-12-13T11:45:34.592Z,22.60
2018-12-13T11:48:02.748Z,28.60
2018-12-13T11:50:30.933Z,23.57
2018-12-13T11:52:59.152Z,25.30
2018-12-13T11:55:28.642Z,22.97
2018-12-13T11:57:56.829Z,23.77
2018-12-13T12:00:24.928Z,20.50
2018-12-13T12:02:53.270Z,25.77
2018-12-13T12:05:21.368Z,23.67
2018-12-13T12:07:49.499Z,24.00
2018-12-13T12:10:17.639Z,23.50
2018-12-13T12:12:45.825Z,20.67
2018-12-13T12:15:14.521Z,22.63
2018-12-13T12:17:42.629Z,21.10
2018-12-13T12:20:10.765Z,22.60
2018-12-13T12:22:38.897Z,21.83
2018-12-13T12:25:07.027Z,18.80
2018-12-13T12:27:35.140Z,20.73
2018-12-13T12:30:03.270Z,19.70
2018-12-13T12:32:31.521Z,20.80
2018-12-13T12:34:59.734Z,18.87
2018-12-13T12:37:27.884Z,21.50
2018-12-13T12:39:56.017Z,22.33
2018-12-13T12:42:24.128Z,18.17
2018-12-13T12:44:52.377Z,20.90
2018-12-13T12:47:20.580Z,19.37
2018-12-13T12:49:48.702Z,18.30
2018-12-13T12:52:17.320Z,19.03
2018-12-13T12:54:45.535Z,20.40
2018-12-13T12:57:13.678Z,17.67
2018-12-13T12:59:41.892Z,19.13
2018-12-13T13:02:10.052Z,16.10
2018-12-13T13:04:38.183Z,18.03
2018-12-13T13:07:06.311Z,20.80
2018-12-13T13:09:34.450Z,21.80
2018-12-13T13:12:02.577Z,18.67
2018-12-13T13:14:30.721Z,21.53
2018-12-13T13:16:58.861Z,21.03
2018-12-13T13:19:26.974Z,19.07
2018-12-13T13:21:55.098Z,21.73
2018-12-13T13:24:23.203Z,21.00
2018-12-13T13:26:51.301Z,19.40
2018-12-13T13:29:19.460Z,19.70
2018-12-13T13:31:47.569Z,20.73
2018-12-13T13:34:15.690Z,22.30
2018-12-13T13:36:43.861Z,21.73
2018-12-13T13:39:12.039Z,19.33
2018-12-13T13:41:40.173Z,22.20
2018-12-13T13:44:08.416Z,24.53
2018-12-13T13:46:36.637Z,23.70
2018-12-13T13:49:05.188Z,24.80
2018-12-13T13:51:33.366Z,24.43
2018-12-13T13:54:01.495Z,28.23
2018-12-13T13:56:29.697Z,29.53
2018-12-13T13:58:57.885Z,31.93
2018-12-13T14:01:26.534Z,33.57
2018-12-13T14:03:54.624Z,30.30
2018-12-13T14:06:22.783Z,27.60
2018-12-13T14:08:51.105Z,31.07
2018-12-13T14:11:19.216Z,29.77
2018-12-13T14:13:47.335Z,30.87
2018-12-13T14:16:15.467Z,31.53
2018-12-13T14:18:43.565Z,33.03
2018-12-13T14:21:11.706Z,33.67
2018-12-13T14:23:39.922Z,32.97
2018-12-13T14:26:08.123Z,34.07
2018-12-13T14:28:36.301Z,31.00
2018-12-13T14:31:04.447Z,32.43
2018-12-13T14:33:32.573Z,33.33
2018-12-13T14:36:00.700Z,34.80
2018-12-13T14:38:28.848Z,30.73
2018-12-13T14:40:57.043Z,31.70
2018-12-13T14:43:25.138Z,33.53
2018-12-13T14:45:53.240Z,31.97
2018-12-13T14:48:21.473Z,32.67
2018-12-13T14:50:49.816Z,32.10
2018-12-13T14:53:17.989Z,30.73
2018-12-13T14:55:46.169Z,34.03
2018-12-13T14:58:14.374Z,30.33
2018-12-13T15:00:42.489Z,34.03
2018-12-13T15:03:10.718Z,30.23
2018-12-13T15:05:38.862Z,30.30
2018-12-13T15:08:07.014Z,32.43
2018-12-13T15:10:35.141Z,29.67
2018-12-13T15:13:03.385Z,33.47
2018-12-13T15:15:31.638Z,29.57
2018-12-13T15:17:59.914Z,35.80
2018-12-13T15:20:28.043Z,30.30
2018-12-13T15:22:56.217Z,31.33
2018-12-13T15:25:24.409Z,31.73
2018-12-13T15:27:52.695Z,33.67
2018-12-13T15:30:20.863Z,34.80
2018-12-13T15:32:48.976Z,31.20
2018-12-13T15:35:17.317Z,32.53
2018-12-13T15:37:45.451Z,32.73
2018-12-13T15:40:13.607Z,29.90
2018-12-13T15:42:41.749Z,31.53
2018-12-13T15:45:10.677Z,32.10
2018-12-13T15:47:38.974Z,34.53
2018-12-13T15:50:07.477Z,31.30
2018-12-13T15:52:36.314Z,28.90
2018-12-13T15:55:04.595Z,31.60
2018-12-13T15:57:32.852Z,31.70
2018-12-13T16:00:00.961Z,34.20
2018-12-13T16:02:29.618Z,30.60
2018-12-13T16:04:57.730Z,32.17
2018-12-13T16:07:25.835Z,31.57
2018-12-13T16:09:53.945Z,30.10
2018-12-13T16:12:22.129Z,29.27
2018-12-13T16:14:50.351Z,33.23
2018-12-13T16:17:18.497Z,31.87
2018-12-13T16:19:46.671Z,30.00
2018-12-13T16:22:14.834Z,29.90
2018-12-13T16:24:43.019Z,30.33
2018-12-13T16:27:11.566Z,28.53
2018-12-13T16:29:40.183Z,30.40
2018-12-13T16:32:08.364Z,27.80
2018-12-13T16:34:36.635Z,29.13
2018-12-13T16:37:04.778Z,26.67
2018-12-13T16:39:32.935Z,29.37
2018-12-13T16:42:01.066Z,29.40
2018-12-13T16:44:29.358Z,30.93
2018-12-13T16:46:57.473Z,28.57
2018-12-13T16:49:25.742Z,29.23
2018-12-13T16:51:53.853Z,27.27
2018-12-13T16:54:22.117Z,30.10
2018-12-13T16:56:50.318Z,29.20
2018-12-13T16:59:19.558Z,30.87
2018-12-13T17:01:49.998Z,27.40
2018-12-13T17:04:18.225Z,29.53
2018-12-13T17:06:46.595Z,26.40
2018-12-13T17:09:15.286Z,25.40
2018-12-13T17:11:43.547Z,24.37
2018-12-13T17:14:12.226Z,26.00
2018-12-13T17:16:40.420Z,25.97
2018-12-13T17:19:08.596Z,25.47
2018-12-13T17:21:36.740Z,23.40
2018-12-13T17:24:05.445Z,23.77
2018-12-13T17:26:33.614Z,23.87
2018-12-13T17:29:01.790Z,22.87
2018-12-13T17:31:29.900Z,23.80
2018-12-13T17:33:58.041Z,24.57
2018-12-13T17:36:26.157Z,27.10
2018-12-13T17:38:54.875Z,22.80
2018-12-13T17:41:23.036Z,22.03
2018-12-13T17:43:51.141Z,24.50
2018-12-13T17:46:19.308Z,21.37
2018-12-13T17:48:47.489Z,20.77
2018-12-13T17:51:15.634Z,21.77
2018-12-13T17:53:44.704Z,20.87
2018-12-13T17:56:13.008Z,20.53
2018-12-13T17:58:41.241Z,22.23
2018-12-13T18:01:09.407Z,20.87
2018-12-13T18:03:37.539Z,18.33
2018-12-13T18:06:05.704Z,21.70
2018-12-13T18:08:33.881Z,21.27
2018-12-13T18:11:01.994Z,21.73
2018-12-13T18:13:30.147Z,21.07
2018-12-13T18:15:58.251Z,22.83
2018-12-13T18:18:26.427Z,22.03
2018-12-13T18:20:54.584Z,20.43
2018-12-13T18:23:22.692Z,20.20
2018-12-13T18:25:50.814Z,21.50
2018-12-13T18:28:18.913Z,21.20
2018-12-13T18:30:47.021Z,21.50
2018-12-13T18:33:15.131Z,22.20
2018-12-13T18:35:43.427Z,25.47
2018-12-13T18:38:11.575Z,23.97
2018-12-13T18:40:39.731Z,21.17
2018-12-13T18:43:07.926Z,21.00
2018-12-13T18:45:37.027Z,21.10
2018-12-13T18:48:05.509Z,23.60
2018-12-13T18:50:34.117Z,20.00
2018-12-13T18:53:02.347Z,22.03
2018-12-13T18:55:30.486Z,23.97
2018-12-13T18:57:58.633Z,21.60
2018-12-13T19:00:26.966Z,21.80
2018-12-13T19:02:55.083Z,20.43
2018-12-13T19:05:23.757Z,18.60
2018-12-13T19:07:51.970Z,21.10
2018-12-13T19:10:20.201Z,22.87
2018-12-13T19:12:48.394Z,21.37
2018-12-13T19:15:16.574Z,20.43
2018-12-13T19:17:45.364Z,19.47
2018-12-13T19:20:13.545Z,22.67
2018-12-13T19:22:41.657Z,20.40
2018-12-13T19:25:10.286Z,19.43
2018-12-13T19:27:38.405Z,22.20
2018-12-13T19:30:07.769Z,21.60
2018-12-13T19:32:35.902Z,20.03
2018-12-13T19:35:04.197Z,19.37
2018-12-13T19:37:32.359Z,21.87
2018-12-13T19:40:00.609Z,20.33
2018-12-13T19:42:29.478Z,21.67
2018-12-13T19:44:57.593Z,20.13
2018-12-13T19:47:25.725Z,20.10
2018-12-13T19:49:53.894Z,19.97
2018-12-13T19:52:22.079Z,19.43
2018-12-13T19:54:50.205Z,22.10
2018-12-13T19:57:18.375Z,20.17
2018-12-13T19:59:46.955Z,21.67
2018-12-13T20:02:15.227Z,22.83
2018-12-13T20:04:43.354Z,18.53
2018-12-13T20:07:12.029Z,27.47
2018-12-13T20:09:40.186Z,20.27
2018-12-13T20:12:08.342Z,20.37
2018-12-13T20:14:36.522Z,19.90
2018-12-13T20:17:04.951Z,20.40
2018-12-13T20:19:33.557Z,20.27
2018-12-13T20:22:08.956Z,20.60
2018-12-13T20:24:51.807Z,20.30
2018-12-13T20:27:35.186Z,20.87
2018-12-13T20:30:13.580Z,19.90
2018-12-13T20:32:45.780Z,19.93
2018-12-13T20:35:41.582Z,20.57
2018-12-13T20:43:59.876Z,21.00
2018-12-13T20:46:31.482Z,20.13
2018-12-13T20:49:10.670Z,19.40
2018-12-13T20:51:46.613Z,19.73
2018-12-13T20:54:20.396Z,17.87
2018-12-13T20:57:04.151Z,20.73
2018-12-13T21:02:17.807Z,18.90
2018-12-13T21:04:56.037Z,20.50
2018-12-13T21:07:50.780Z,19.87
2018-12-13T21:10:26.923Z,20.93
2018-12-13T21:13:06.823Z,19.33
2018-12-13T21:15:44.229Z,20.70
2018-12-13T21:18:44.512Z,19.40
2018-12-13T21:21:38.743Z,21.83
2018-12-13T21:24:21.043Z,20.27
2018-12-13T21:30:50.747Z,20.53
2018-12-13T21:33:25.616Z,20.50
2018-12-13T21:36:02.471Z,22.10
2018-12-13T21:38:39.678Z,24.13
2018-12-13T21:41:26.484Z,21.30
2018-12-13T21:44:18.380Z,20.40
2018-12-13T21:46:57.550Z,20.87
2018-12-13T21:52:19.469Z,21.93
2018-12-13T21:54:52.438Z,21.47
2018-12-13T21:57:44.221Z,22.53
2018-12-13T22:00:21.374Z,24.17
2018-12-13T22:03:00.913Z,22.17
2018-12-13T22:05:50.080Z,25.77
2018-12-13T22:08:18.209Z,20.40
2018-12-13T22:10:47.567Z,20.90
2018-12-13T22:13:16.316Z,23.40
2018-12-13T22:15:44.982Z,21.10
2018-12-13T22:18:13.174Z,23.00
2018-12-13T22:20:41.310Z,22.43
2018-12-13T22:23:09.605Z,21.73
2018-12-13T22:25:37.741Z,23.23
2018-12-13T22:28:05.946Z,20.73
2018-12-13T22:30:34.110Z,20.83
2018-12-13T22:33:02.284Z,20.80
2018-12-13T22:35:30.474Z,25.50
2018-12-13T22:37:58.604Z,20.70
2018-12-13T22:40:26.821Z,23.57
2018-12-13T22:42:54.983Z,23.90
2018-12-13T22:45:23.150Z,23.63
2018-12-13T22:47:51.281Z,23.83
2018-12-13T22:50:19.390Z,22.47
2018-12-13T22:52:47.504Z,25.57
2018-12-13T22:55:15.732Z,22.27
2018-12-13T22:57:43.926Z,24.83
2018-12-13T23:00:12.043Z,21.43
2018-12-13T23:02:40.154Z,22.63
2018-12-13T23:05:08.355Z,22.40
2018-12-13T23:07:36.540Z,25.27
2018-12-13T23:10:04.669Z,24.40
2018-12-13T23:12:32.877Z,25.67
2018-12-13T23:15:01.070Z,24.00
2018-12-13T23:17:29.293Z,24.10
2018-12-13T23:19:57.466Z,23.00
2018-12-13T23:22:25.660Z,22.63
2018-12-13T23:24:53.844Z,23.40
2018-12-13T23:27:21.974Z,26.60
2018-12-13T23:29:50.198Z,23.43
2018-12-13T23:32:18.365Z,27.53
2018-12-13T23:34:46.549Z,26.07
2018-12-13T23:37:14.730Z,26.67
2018-12-13T23:39:42.849Z,26.07
2018-12-13T23:42:11.063Z,23.77
2018-12-13T23:44:39.168Z,28.47
2018-12-13T23:47:07.269Z,27.53
2018-12-13T23:49:35.445Z,27.43
2018-12-13T23:52:04.070Z,26.67
2018-12-13T23:54:32.200Z,26.90
2018-12-13T23:57:00.386Z,28.37
2018-12-13T23:59:28.605Z,27.37
